sensor_id;sensor_type;location;lat;lon;timestamp;temperature;humidity
18611;DHT22;9435;52.122;5.502;2023-04-19T00:01:32;9.00;99.90
18611;DHT22;9435;52.122;5.502;2023-04-19T00:03:59;8.90;99.90
18611;DHT22;9435;52.122;5.502;2023-04-19T00:06:27;8.90;99.90
18611;DHT22;9435;52.122;5.502;2023-04-19T00:08:55;8.90;99.90
18611;DHT22;9435;52.122;5.502;2023-04-19T00:11:24;8.90;99.90
18611;DHT22;9435;52.122;5.502;2023-04-19T00:13:51;8.80;99.90
18611;DHT22;9435;52.122;5.502;2023-04-19T00:16:18;8.70;99.90
18611;DHT22;9435;52.122;5.502;2023-04-19T00:18:46;8.50;99.90
18611;DHT22;9435;52.122;5.502;2023-04-19T00:21:13;8.50;99.90
18611;DHT22;9435;52.122;5.502;2023-04-19T00:23:40;8.50;99.90
18611;DHT22;9435;52.122;5.502;2023-04-19T00:26:07;8.50;99.90
18611;DHT22;9435;52.122;5.502;2023-04-19T00:28:37;8.40;99.90
18611;DHT22;9435;52.122;5.502;2023-04-19T00:31:04;8.30;99.90
18611;DHT22;9435;52.122;5.502;2023-04-19T00:33:32;8.30;99.90
18611;DHT22;9435;52.122;5.502;2023-04-19T00:35:59;8.20;99.90
18611;DHT22;9435;52.122;5.502;2023-04-19T00:38:26;8.20;99.90
18611;DHT22;9435;52.122;5.502;2023-04-19T00:40:53;8.10;99.90
18611;DHT22;9435;52.122;5.502;2023-04-19T00:43:20;8.00;99.90
18611;DHT22;9435;52.122;5.502;2023-04-19T00:45:48;8.10;99.90
18611;DHT22;9435;52.122;5.502;2023-04-19T00:48:16;8.00;99.90
18611;DHT22;9435;52.122;5.502;2023-04-19T00:50:44;7.90;99.90
18611;DHT22;9435;52.122;5.502;2023-04-19T00:53:11;7.90;99.90
18611;DHT22;9435;52.122;5.502;2023-04-19T00:55:38;7.90;99.90
18611;DHT22;9435;52.122;5.502;2023-04-19T00:58:07;7.90;99.90
18611;DHT22;9435;52.122;5.502;2023-04-19T01:00:34;7.90;99.90
18611;DHT22;9435;52.122;5.502;2023-04-19T01:03:02;7.90;99.90
18611;DHT22;9435;52.122;5.502;2023-04-19T01:05:30;7.90;99.90
18611;DHT22;9435;52.122;5.502;2023-04-19T01:07:57;7.90;99.90
18611;DHT22;9435;52.122;5.502;2023-04-19T01:10:24;8.00;99.90
18611;DHT22;9435;52.122;5.502;2023-04-19T01:12:51;8.00;99.90
18611;DHT22;9435;52.122;5.502;2023-04-19T01:15:18;8.10;99.90
18611;DHT22;9435;52.122;5.502;2023-04-19T01:17:45;8.10;99.90
18611;DHT22;9435;52.122;5.502;2023-04-19T01:20:14;8.10;99.90
18611;DHT22;9435;52.122;5.502;2023-04-19T01:22:42;8.10;99.90
18611;DHT22;9435;52.122;5.502;2023-04-19T01:25:09;8.00;99.90
18611;DHT22;9435;52.122;5.502;2023-04-19T01:27:37;8.00;99.90
18611;DHT22;9435;52.122;5.502;2023-04-19T01:30:05;8.00;99.90
18611;DHT22;9435;52.122;5.502;2023-04-19T01:32:32;8.10;99.90
18611;DHT22;9435;52.122;5.502;2023-04-19T01:34:59;8.10;99.90
18611;DHT22;9435;52.122;5.502;2023-04-19T01:37:26;8.10;99.90
18611;DHT22;9435;52.122;5.502;2023-04-19T01:39:54;8.10;99.90
18611;DHT22;9435;52.122;5.502;2023-04-19T01:42:21;8.10;99.90
18611;DHT22;9435;52.122;5.502;2023-04-19T01:44:48;8.20;99.90
18611;DHT22;9435;52.122;5.502;2023-04-19T01:47:15;8.20;99.90
18611;DHT22;9435;52.122;5.502;2023-04-19T01:49:42;8.20;99.90
18611;DHT22;9435;52.122;5.502;2023-04-19T01:52:09;8.20;99.90
18611;DHT22;9435;52.122;5.502;2023-04-19T01:54:36;8.30;99.90
18611;DHT22;9435;52.122;5.502;2023-04-19T01:57:05;8.30;99.90
18611;DHT22;9435;52.122;5.502;2023-04-19T01:59:32;8.30;99.90
18611;DHT22;9435;52.122;5.502;2023-04-19T02:01:59;8.30;99.90
18611;DHT22;9435;52.122;5.502;2023-04-19T02:04:26;8.30;99.90
18611;DHT22;9435;52.122;5.502;2023-04-19T02:06:53;8.40;99.90
18611;DHT22;9435;52.122;5.502;2023-04-19T02:09:20;8.40;99.90
18611;DHT22;9435;52.122;5.502;2023-04-19T02:11:47;8.40;99.90
18611;DHT22;9435;52.122;5.502;2023-04-19T02:14:15;8.50;99.90
18611;DHT22;9435;52.122;5.502;2023-04-19T02:16:42;8.50;99.90
18611;DHT22;9435;52.122;5.502;2023-04-19T02:19:09;8.60;99.90
18611;DHT22;9435;52.122;5.502;2023-04-19T02:21:36;8.60;99.90
18611;DHT22;9435;52.122;5.502;2023-04-19T02:24:04;8.60;99.90
18611;DHT22;9435;52.122;5.502;2023-04-19T02:26:31;8.60;99.90
18611;DHT22;9435;52.122;5.502;2023-04-19T02:28:58;8.70;99.90
18611;DHT22;9435;52.122;5.502;2023-04-19T02:31:26;8.70;99.90
18611;DHT22;9435;52.122;5.502;2023-04-19T02:33:53;8.70;99.90
18611;DHT22;9435;52.122;5.502;2023-04-19T02:36:20;8.70;99.90
18611;DHT22;9435;52.122;5.502;2023-04-19T02:38:47;8.70;99.90
18611;DHT22;9435;52.122;5.502;2023-04-19T02:41:14;8.70;99.90
18611;DHT22;9435;52.122;5.502;2023-04-19T02:43:41;8.70;99.90
18611;DHT22;9435;52.122;5.502;2023-04-19T02:46:09;8.70;99.90
18611;DHT22;9435;52.122;5.502;2023-04-19T02:48:37;8.80;99.90
18611;DHT22;9435;52.122;5.502;2023-04-19T02:51:04;8.80;99.90
18611;DHT22;9435;52.122;5.502;2023-04-19T02:53:32;8.80;99.90
18611;DHT22;9435;52.122;5.502;2023-04-19T02:55:59;8.80;99.90
18611;DHT22;9435;52.122;5.502;2023-04-19T02:58:26;8.80;99.90
18611;DHT22;9435;52.122;5.502;2023-04-19T03:00:53;8.80;99.90
18611;DHT22;9435;52.122;5.502;2023-04-19T03:03:20;8.80;99.90
18611;DHT22;9435;52.122;5.502;2023-04-19T03:05:49;8.90;99.90
18611;DHT22;9435;52.122;5.502;2023-04-19T03:08:16;8.90;99.90
18611;DHT22;9435;52.122;5.502;2023-04-19T03:10:43;8.90;99.90
18611;DHT22;9435;52.122;5.502;2023-04-19T03:13:10;8.90;99.90
18611;DHT22;9435;52.122;5.502;2023-04-19T03:15:37;8.90;99.90
18611;DHT22;9435;52.122;5.502;2023-04-19T03:18:04;8.90;99.90
18611;DHT22;9435;52.122;5.502;2023-04-19T03:20:31;8.90;99.90
18611;DHT22;9435;52.122;5.502;2023-04-19T03:23:00;9.00;99.90
18611;DHT22;9435;52.122;5.502;2023-04-19T03:25:27;9.00;99.90
18611;DHT22;9435;52.122;5.502;2023-04-19T03:27:55;9.10;99.90
18611;DHT22;9435;52.122;5.502;2023-04-19T03:30:22;9.10;99.90
18611;DHT22;9435;52.122;5.502;2023-04-19T03:32:49;9.10;99.90
18611;DHT22;9435;52.122;5.502;2023-04-19T03:35:17;9.20;99.90
18611;DHT22;9435;52.122;5.502;2023-04-19T03:37:45;9.20;99.90
18611;DHT22;9435;52.122;5.502;2023-04-19T03:40:13;9.20;99.90
18611;DHT22;9435;52.122;5.502;2023-04-19T03:42:40;9.20;99.90
18611;DHT22;9435;52.122;5.502;2023-04-19T03:45:08;9.20;99.90
18611;DHT22;9435;52.122;5.502;2023-04-19T03:47:36;9.10;99.90
18611;DHT22;9435;52.122;5.502;2023-04-19T03:50:03;9.10;99.90
18611;DHT22;9435;52.122;5.502;2023-04-19T03:52:30;9.00;99.90
18611;DHT22;9435;52.122;5.502;2023-04-19T03:54:57;8.80;99.90
18611;DHT22;9435;52.122;5.502;2023-04-19T03:57:26;8.80;99.90
18611;DHT22;9435;52.122;5.502;2023-04-19T03:59:53;8.80;99.90
18611;DHT22;9435;52.122;5.502;2023-04-19T04:02:20;8.70;99.90
18611;DHT22;9435;52.122;5.502;2023-04-19T04:04:52;8.70;99.90
18611;DHT22;9435;52.122;5.502;2023-04-19T04:07:20;8.70;99.90
18611;DHT22;9435;52.122;5.502;2023-04-19T04:09:47;8.70;99.90
18611;DHT22;9435;52.122;5.502;2023-04-19T04:12:15;8.70;99.90
18611;DHT22;9435;52.122;5.502;2023-04-19T04:14:43;8.70;99.90
18611;DHT22;9435;52.122;5.502;2023-04-19T04:17:10;8.60;99.90
18611;DHT22;9435;52.122;5.502;2023-04-19T04:19:37;8.60;99.90
18611;DHT22;9435;52.122;5.502;2023-04-19T04:22:05;8.60;99.90
18611;DHT22;9435;52.122;5.502;2023-04-19T04:24:37;8.50;99.90
18611;DHT22;9435;52.122;5.502;2023-04-19T04:27:06;8.50;99.90
18611;DHT22;9435;52.122;5.502;2023-04-19T04:29:34;8.50;99.90
18611;DHT22;9435;52.122;5.502;2023-04-19T04:32:03;8.40;99.90
18611;DHT22;9435;52.122;5.502;2023-04-19T04:34:30;8.30;99.90
18611;DHT22;9435;52.122;5.502;2023-04-19T04:36:58;8.30;99.90
18611;DHT22;9435;52.122;5.502;2023-04-19T04:39:26;8.30;99.90
18611;DHT22;9435;52.122;5.502;2023-04-19T04:41:53;8.20;99.90
18611;DHT22;9435;52.122;5.502;2023-04-19T04:44:22;8.10;99.90
18611;DHT22;9435;52.122;5.502;2023-04-19T04:46:49;8.10;99.90
18611;DHT22;9435;52.122;5.502;2023-04-19T04:49:17;8.10;99.90
18611;DHT22;9435;52.122;5.502;2023-04-19T04:51:44;8.00;99.90
18611;DHT22;9435;52.122;5.502;2023-04-19T04:54:11;8.00;99.90
18611;DHT22;9435;52.122;5.502;2023-04-19T04:56:38;8.10;99.90
18611;DHT22;9435;52.122;5.502;2023-04-19T04:59:05;8.00;99.90
18611;DHT22;9435;52.122;5.502;2023-04-19T05:01:33;8.00;99.90
18611;DHT22;9435;52.122;5.502;2023-04-19T05:04:00;8.00;99.90
18611;DHT22;9435;52.122;5.502;2023-04-19T05:06:29;8.00;99.90
18611;DHT22;9435;52.122;5.502;2023-04-19T05:08:56;8.00;99.90
18611;DHT22;9435;52.122;5.502;2023-04-19T05:11:23;8.00;99.90
18611;DHT22;9435;52.122;5.502;2023-04-19T05:13:50;8.00;99.90
18611;DHT22;9435;52.122;5.502;2023-04-19T05:16:17;8.00;99.90
18611;DHT22;9435;52.122;5.502;2023-04-19T05:18:44;8.00;99.90
18611;DHT22;9435;52.122;5.502;2023-04-19T05:21:11;8.00;99.90
18611;DHT22;9435;52.122;5.502;2023-04-19T05:23:40;8.00;99.90
18611;DHT22;9435;52.122;5.502;2023-04-19T05:26:07;8.10;99.90
18611;DHT22;9435;52.122;5.502;2023-04-19T05:28:37;8.20;99.90
18611;DHT22;9435;52.122;5.502;2023-04-19T05:31:05;8.30;99.90
18611;DHT22;9435;52.122;5.502;2023-04-19T05:33:32;8.20;99.90
18611;DHT22;9435;52.122;5.502;2023-04-19T05:35:59;8.30;99.90
18611;DHT22;9435;52.122;5.502;2023-04-19T05:38:26;8.40;99.90
18611;DHT22;9435;52.122;5.502;2023-04-19T05:40:54;8.40;99.90
18611;DHT22;9435;52.122;5.502;2023-04-19T05:43:21;8.40;99.90
18611;DHT22;9435;52.122;5.502;2023-04-19T05:45:48;8.40;99.90
18611;DHT22;9435;52.122;5.502;2023-04-19T05:48:15;8.40;99.90
18611;DHT22;9435;52.122;5.502;2023-04-19T05:50:42;8.50;99.90
18611;DHT22;9435;52.122;5.502;2023-04-19T05:53:09;8.50;99.90
18611;DHT22;9435;52.122;5.502;2023-04-19T05:55:36;8.50;99.90
18611;DHT22;9435;52.122;5.502;2023-04-19T05:58:05;8.60;99.90
18611;DHT22;9435;52.122;5.502;2023-04-19T06:00:32;8.60;99.90
18611;DHT22;9435;52.122;5.502;2023-04-19T06:02:59;8.60;99.90
18611;DHT22;9435;52.122;5.502;2023-04-19T06:05:26;8.70;99.90
18611;DHT22;9435;52.122;5.502;2023-04-19T06:07:53;8.80;99.90
18611;DHT22;9435;52.122;5.502;2023-04-19T06:10:21;8.80;99.90
18611;DHT22;9435;52.122;5.502;2023-04-19T06:12:48;8.90;99.90
18611;DHT22;9435;52.122;5.502;2023-04-19T06:15:17;9.20;99.90
18611;DHT22;9435;52.122;5.502;2023-04-19T06:17:44;9.40;99.90
18611;DHT22;9435;52.122;5.502;2023-04-19T06:20:11;9.50;99.90
18611;DHT22;9435;52.122;5.502;2023-04-19T06:22:41;9.60;99.90
18611;DHT22;9435;52.122;5.502;2023-04-19T06:25:08;9.70;99.90
18611;DHT22;9435;52.122;5.502;2023-04-19T06:27:36;9.60;99.90
18611;DHT22;9435;52.122;5.502;2023-04-19T06:30:03;9.60;99.90
18611;DHT22;9435;52.122;5.502;2023-04-19T06:32:32;9.60;99.90
18611;DHT22;9435;52.122;5.502;2023-04-19T06:34:59;9.70;99.90
18611;DHT22;9435;52.122;5.502;2023-04-19T06:37:26;9.80;99.90
18611;DHT22;9435;52.122;5.502;2023-04-19T06:39:53;9.80;99.90
18611;DHT22;9435;52.122;5.502;2023-04-19T06:42:20;9.90;99.90
18611;DHT22;9435;52.122;5.502;2023-04-19T06:44:49;10.00;99.90
18611;DHT22;9435;52.122;5.502;2023-04-19T06:47:16;10.00;99.90
18611;DHT22;9435;52.122;5.502;2023-04-19T06:49:45;10.00;99.90
18611;DHT22;9435;52.122;5.502;2023-04-19T06:52:12;9.90;99.90
18611;DHT22;9435;52.122;5.502;2023-04-19T06:54:40;10.00;99.90
18611;DHT22;9435;52.122;5.502;2023-04-19T06:57:07;10.10;99.90
18611;DHT22;9435;52.122;5.502;2023-04-19T06:59:35;10.00;99.90
18611;DHT22;9435;52.122;5.502;2023-04-19T07:02:04;10.20;99.90
18611;DHT22;9435;52.122;5.502;2023-04-19T07:04:32;10.20;99.90
18611;DHT22;9435;52.122;5.502;2023-04-19T07:07:01;10.30;99.90
18611;DHT22;9435;52.122;5.502;2023-04-19T07:09:28;10.40;99.90
18611;DHT22;9435;52.122;5.502;2023-04-19T07:11:56;10.40;99.90
18611;DHT22;9435;52.122;5.502;2023-04-19T07:14:23;10.40;99.90
18611;DHT22;9435;52.122;5.502;2023-04-19T07:16:50;10.30;99.90
18611;DHT22;9435;52.122;5.502;2023-04-19T07:19:19;10.20;99.90
18611;DHT22;9435;52.122;5.502;2023-04-19T07:21:47;10.40;99.90
18611;DHT22;9435;52.122;5.502;2023-04-19T07:24:16;10.40;99.90
18611;DHT22;9435;52.122;5.502;2023-04-19T07:26:43;10.50;99.90
18611;DHT22;9435;52.122;5.502;2023-04-19T07:29:10;10.50;99.90
18611;DHT22;9435;52.122;5.502;2023-04-19T07:31:37;10.60;99.90
18611;DHT22;9435;52.122;5.502;2023-04-19T07:34:06;10.70;99.90
18611;DHT22;9435;52.122;5.502;2023-04-19T07:36:33;10.60;99.90
18611;DHT22;9435;52.122;5.502;2023-04-19T07:39:01;10.60;99.90
18611;DHT22;9435;52.122;5.502;2023-04-19T07:41:30;10.50;99.90
18611;DHT22;9435;52.122;5.502;2023-04-19T07:43:57;10.50;99.90
18611;DHT22;9435;52.122;5.502;2023-04-19T07:46:24;10.60;99.90
18611;DHT22;9435;52.122;5.502;2023-04-19T07:48:51;10.40;99.90
18611;DHT22;9435;52.122;5.502;2023-04-19T07:51:18;10.50;99.90
18611;DHT22;9435;52.122;5.502;2023-04-19T07:53:48;10.90;99.90
18611;DHT22;9435;52.122;5.502;2023-04-19T07:56:15;11.10;99.90
18611;DHT22;9435;52.122;5.502;2023-04-19T07:58:45;10.90;99.90
18611;DHT22;9435;52.122;5.502;2023-04-19T08:01:12;10.80;99.90
18611;DHT22;9435;52.122;5.502;2023-04-19T08:03:40;10.90;99.90
18611;DHT22;9435;52.122;5.502;2023-04-19T08:06:07;11.00;99.90
18611;DHT22;9435;52.122;5.502;2023-04-19T08:08:34;11.00;99.90
18611;DHT22;9435;52.122;5.502;2023-04-19T08:11:02;11.00;99.90
18611;DHT22;9435;52.122;5.502;2023-04-19T08:13:29;11.10;99.90
18611;DHT22;9435;52.122;5.502;2023-04-19T08:15:58;11.10;99.90
18611;DHT22;9435;52.122;5.502;2023-04-19T08:18:25;11.00;99.90
18611;DHT22;9435;52.122;5.502;2023-04-19T08:20:52;11.30;99.90
18611;DHT22;9435;52.122;5.502;2023-04-19T08:23:20;11.20;99.90
18611;DHT22;9435;52.122;5.502;2023-04-19T08:25:48;11.40;99.90
18611;DHT22;9435;52.122;5.502;2023-04-19T08:28:15;11.60;99.90
18611;DHT22;9435;52.122;5.502;2023-04-19T08:30:42;11.70;99.90
18611;DHT22;9435;52.122;5.502;2023-04-19T08:33:11;11.60;99.90
18611;DHT22;9435;52.122;5.502;2023-04-19T08:35:38;11.80;99.90
18611;DHT22;9435;52.122;5.502;2023-04-19T08:38:06;11.70;99.90
18611;DHT22;9435;52.122;5.502;2023-04-19T08:40:33;11.80;99.90
18611;DHT22;9435;52.122;5.502;2023-04-19T08:43:04;11.80;99.90
18611;DHT22;9435;52.122;5.502;2023-04-19T08:45:32;11.60;99.90
18611;DHT22;9435;52.122;5.502;2023-04-19T08:48:00;11.90;99.90
18611;DHT22;9435;52.122;5.502;2023-04-19T08:50:30;11.90;99.90
18611;DHT22;9435;52.122;5.502;2023-04-19T08:52:58;12.00;99.90
18611;DHT22;9435;52.122;5.502;2023-04-19T08:55:27;11.90;99.90
18611;DHT22;9435;52.122;5.502;2023-04-19T08:57:56;12.10;99.90
18611;DHT22;9435;52.122;5.502;2023-04-19T09:00:23;12.20;99.90
18611;DHT22;9435;52.122;5.502;2023-04-19T09:02:51;12.00;99.90
18611;DHT22;9435;52.122;5.502;2023-04-19T09:05:19;12.10;99.90
18611;DHT22;9435;52.122;5.502;2023-04-19T09:07:47;12.10;99.90
18611;DHT22;9435;52.122;5.502;2023-04-19T09:10:16;11.80;99.90
18611;DHT22;9435;52.122;5.502;2023-04-19T09:12:43;11.70;99.90
18611;DHT22;9435;52.122;5.502;2023-04-19T09:15:35;11.70;99.90
18611;DHT22;9435;52.122;5.502;2023-04-19T09:18:04;11.90;99.90
18611;DHT22;9435;52.122;5.502;2023-04-19T09:20:35;11.80;99.90
18611;DHT22;9435;52.122;5.502;2023-04-19T09:23:06;11.70;99.90
18611;DHT22;9435;52.122;5.502;2023-04-19T09:25:34;11.90;99.90
18611;DHT22;9435;52.122;5.502;2023-04-19T09:28:10;11.80;99.90
18611;DHT22;9435;52.122;5.502;2023-04-19T09:30:38;12.20;99.90
18611;DHT22;9435;52.122;5.502;2023-04-19T09:33:05;12.10;99.90
18611;DHT22;9435;52.122;5.502;2023-04-19T09:35:40;12.30;99.90
18611;DHT22;9435;52.122;5.502;2023-04-19T09:38:09;12.10;99.90
18611;DHT22;9435;52.122;5.502;2023-04-19T09:40:37;12.10;99.90
18611;DHT22;9435;52.122;5.502;2023-04-19T09:43:04;12.20;99.90
18611;DHT22;9435;52.122;5.502;2023-04-19T09:45:41;12.50;99.90
18611;DHT22;9435;52.122;5.502;2023-04-19T09:48:14;12.40;99.90
18611;DHT22;9435;52.122;5.502;2023-04-19T09:50:51;12.40;99.90
18611;DHT22;9435;52.122;5.502;2023-04-19T09:53:21;12.80;99.90
18611;DHT22;9435;52.122;5.502;2023-04-19T09:55:48;12.70;99.90
18611;DHT22;9435;52.122;5.502;2023-04-19T09:58:16;13.00;99.90
18611;DHT22;9435;52.122;5.502;2023-04-19T10:00:44;13.00;99.90
18611;DHT22;9435;52.122;5.502;2023-04-19T10:03:13;12.60;99.90
18611;DHT22;9435;52.122;5.502;2023-04-19T10:05:42;12.50;99.90
18611;DHT22;9435;52.122;5.502;2023-04-19T10:08:10;12.70;99.90
18611;DHT22;9435;52.122;5.502;2023-04-19T10:10:40;12.70;99.90
18611;DHT22;9435;52.122;5.502;2023-04-19T10:13:10;12.80;99.90
18611;DHT22;9435;52.122;5.502;2023-04-19T10:15:38;12.70;99.90
18611;DHT22;9435;52.122;5.502;2023-04-19T10:18:08;13.00;99.90
18611;DHT22;9435;52.122;5.502;2023-04-19T10:20:38;12.90;99.90
18611;DHT22;9435;52.122;5.502;2023-04-19T10:23:08;13.00;99.90
18611;DHT22;9435;52.122;5.502;2023-04-19T10:25:36;13.00;99.90
18611;DHT22;9435;52.122;5.502;2023-04-19T10:28:05;13.00;99.90
18611;DHT22;9435;52.122;5.502;2023-04-19T10:30:32;13.30;99.90
18611;DHT22;9435;52.122;5.502;2023-04-19T10:32:59;13.60;99.90
18611;DHT22;9435;52.122;5.502;2023-04-19T10:35:34;13.10;99.90
18611;DHT22;9435;52.122;5.502;2023-04-19T10:38:06;13.50;99.90
18611;DHT22;9435;52.122;5.502;2023-04-19T10:40:53;13.70;99.90
18611;DHT22;9435;52.122;5.502;2023-04-19T10:43:22;13.80;99.90
18611;DHT22;9435;52.122;5.502;2023-04-19T10:45:50;13.60;99.90
18611;DHT22;9435;52.122;5.502;2023-04-19T10:48:34;13.30;99.90
18611;DHT22;9435;52.122;5.502;2023-04-19T10:51:04;13.30;99.90
18611;DHT22;9435;52.122;5.502;2023-04-19T10:53:51;13.10;99.90
18611;DHT22;9435;52.122;5.502;2023-04-19T10:56:19;13.30;99.90
18611;DHT22;9435;52.122;5.502;2023-04-19T10:59:13;13.30;99.90
18611;DHT22;9435;52.122;5.502;2023-04-19T11:01:49;13.70;99.90
18611;DHT22;9435;52.122;5.502;2023-04-19T11:04:18;14.00;99.90
18611;DHT22;9435;52.122;5.502;2023-04-19T11:07:02;13.70;99.90
18611;DHT22;9435;52.122;5.502;2023-04-19T11:09:31;14.00;99.90
18611;DHT22;9435;52.122;5.502;2023-04-19T11:12:00;13.70;99.90
18611;DHT22;9435;52.122;5.502;2023-04-19T11:14:33;13.90;99.90
18611;DHT22;9435;52.122;5.502;2023-04-19T11:17:02;13.80;99.90
18611;DHT22;9435;52.122;5.502;2023-04-19T11:19:29;14.10;99.90
18611;DHT22;9435;52.122;5.502;2023-04-19T11:21:57;13.90;99.90
18611;DHT22;9435;52.122;5.502;2023-04-19T11:24:25;14.40;99.90
18611;DHT22;9435;52.122;5.502;2023-04-19T11:26:55;14.10;99.90
18611;DHT22;9435;52.122;5.502;2023-04-19T11:29:23;14.20;99.90
18611;DHT22;9435;52.122;5.502;2023-04-19T11:31:53;14.30;99.90
18611;DHT22;9435;52.122;5.502;2023-04-19T11:34:22;14.40;99.90
18611;DHT22;9435;52.122;5.502;2023-04-19T11:36:50;14.00;99.90
18611;DHT22;9435;52.122;5.502;2023-04-19T11:39:17;14.30;99.90
18611;DHT22;9435;52.122;5.502;2023-04-19T11:41:44;14.50;99.90
18611;DHT22;9435;52.122;5.502;2023-04-19T11:44:13;14.30;99.90
18611;DHT22;9435;52.122;5.502;2023-04-19T11:46:41;14.40;99.90
18611;DHT22;9435;52.122;5.502;2023-04-19T11:49:09;14.50;99.90
18611;DHT22;9435;52.122;5.502;2023-04-19T11:51:55;14.80;99.90
18611;DHT22;9435;52.122;5.502;2023-04-19T11:54:24;14.70;99.90
18611;DHT22;9435;52.122;5.502;2023-04-19T11:56:59;14.30;99.90
18611;DHT22;9435;52.122;5.502;2023-04-19T11:59:27;14.50;99.90
18611;DHT22;9435;52.122;5.502;2023-04-19T12:01:54;14.20;99.90
18611;DHT22;9435;52.122;5.502;2023-04-19T12:04:23;14.30;99.90
18611;DHT22;9435;52.122;5.502;2023-04-19T12:06:57;14.50;99.90
18611;DHT22;9435;52.122;5.502;2023-04-19T12:09:25;14.60;99.90
18611;DHT22;9435;52.122;5.502;2023-04-19T12:11:52;14.50;99.90
18611;DHT22;9435;52.122;5.502;2023-04-19T12:14:21;14.50;99.90
18611;DHT22;9435;52.122;5.502;2023-04-19T12:17:08;14.40;99.90
18611;DHT22;9435;52.122;5.502;2023-04-19T12:19:43;14.40;99.90
18611;DHT22;9435;52.122;5.502;2023-04-19T12:22:13;14.30;99.90
18611;DHT22;9435;52.122;5.502;2023-04-19T12:24:40;14.50;99.90
18611;DHT22;9435;52.122;5.502;2023-04-19T12:27:08;14.80;99.90
18611;DHT22;9435;52.122;5.502;2023-04-19T12:29:36;14.50;99.90
18611;DHT22;9435;52.122;5.502;2023-04-19T12:32:03;14.50;99.90
18611;DHT22;9435;52.122;5.502;2023-04-19T12:34:30;14.80;99.90
18611;DHT22;9435;52.122;5.502;2023-04-19T12:36:59;15.00;99.90
18611;DHT22;9435;52.122;5.502;2023-04-19T12:39:26;14.70;99.90
18611;DHT22;9435;52.122;5.502;2023-04-19T12:41:53;15.00;99.90
18611;DHT22;9435;52.122;5.502;2023-04-19T12:44:20;14.60;99.90
18611;DHT22;9435;52.122;5.502;2023-04-19T12:46:47;14.50;99.90
18611;DHT22;9435;52.122;5.502;2023-04-19T12:49:17;14.60;99.90
18611;DHT22;9435;52.122;5.502;2023-04-19T12:51:45;14.40;99.90
18611;DHT22;9435;52.122;5.502;2023-04-19T12:54:14;14.40;99.90
18611;DHT22;9435;52.122;5.502;2023-04-19T12:56:41;14.40;99.90
18611;DHT22;9435;52.122;5.502;2023-04-19T12:59:08;14.90;99.90
18611;DHT22;9435;52.122;5.502;2023-04-19T13:01:36;14.90;99.90
18611;DHT22;9435;52.122;5.502;2023-04-19T13:04:03;14.60;99.90
18611;DHT22;9435;52.122;5.502;2023-04-19T13:06:30;14.70;99.90
18611;DHT22;9435;52.122;5.502;2023-04-19T13:08:57;14.70;99.90
18611;DHT22;9435;52.122;5.502;2023-04-19T13:11:25;14.70;99.90
18611;DHT22;9435;52.122;5.502;2023-04-19T13:13:52;14.70;99.90
18611;DHT22;9435;52.122;5.502;2023-04-19T13:16:19;14.70;99.90
18611;DHT22;9435;52.122;5.502;2023-04-19T13:18:47;14.80;99.90
18611;DHT22;9435;52.122;5.502;2023-04-19T13:21:15;14.60;99.90
18611;DHT22;9435;52.122;5.502;2023-04-19T13:23:43;14.80;99.90
18611;DHT22;9435;52.122;5.502;2023-04-19T13:26:10;14.70;99.90
18611;DHT22;9435;52.122;5.502;2023-04-19T13:28:40;14.60;99.90
18611;DHT22;9435;52.122;5.502;2023-04-19T13:31:08;14.90;99.90
18611;DHT22;9435;52.122;5.502;2023-04-19T13:33:35;14.80;99.90
18611;DHT22;9435;52.122;5.502;2023-04-19T13:36:02;14.50;99.90
18611;DHT22;9435;52.122;5.502;2023-04-19T13:38:29;14.50;99.90
18611;DHT22;9435;52.122;5.502;2023-04-19T13:40:56;14.70;99.90
18611;DHT22;9435;52.122;5.502;2023-04-19T13:43:24;14.70;99.90
18611;DHT22;9435;52.122;5.502;2023-04-19T13:45:53;14.90;99.90
18611;DHT22;9435;52.122;5.502;2023-04-19T13:48:20;15.10;99.90
18611;DHT22;9435;52.122;5.502;2023-04-19T13:50:47;15.10;99.90
18611;DHT22;9435;52.122;5.502;2023-04-19T13:53:15;15.30;99.90
18611;DHT22;9435;52.122;5.502;2023-04-19T13:55:42;15.30;99.90
18611;DHT22;9435;52.122;5.502;2023-04-19T13:58:09;15.20;99.90
18611;DHT22;9435;52.122;5.502;2023-04-19T14:00:36;15.00;99.90
18611;DHT22;9435;52.122;5.502;2023-04-19T14:03:05;15.10;99.90
18611;DHT22;9435;52.122;5.502;2023-04-19T14:05:32;15.20;99.90
18611;DHT22;9435;52.122;5.502;2023-04-19T14:07:59;15.20;99.90
18611;DHT22;9435;52.122;5.502;2023-04-19T14:10:26;15.00;99.90
18611;DHT22;9435;52.122;5.502;2023-04-19T14:12:53;15.10;99.90
18611;DHT22;9435;52.122;5.502;2023-04-19T14:15:20;15.30;99.90
18611;DHT22;9435;52.122;5.502;2023-04-19T14:17:48;15.00;99.90
18611;DHT22;9435;52.122;5.502;2023-04-19T14:20:17;15.10;99.90
18611;DHT22;9435;52.122;5.502;2023-04-19T14:22:44;15.20;99.90
18611;DHT22;9435;52.122;5.502;2023-04-19T14:25:12;15.30;99.90
18611;DHT22;9435;52.122;5.502;2023-04-19T14:27:41;15.20;99.90
18611;DHT22;9435;52.122;5.502;2023-04-19T14:30:08;15.20;99.90
18611;DHT22;9435;52.122;5.502;2023-04-19T14:32:36;15.10;99.90
18611;DHT22;9435;52.122;5.502;2023-04-19T14:35:03;15.00;99.90
18611;DHT22;9435;52.122;5.502;2023-04-19T14:37:34;15.10;99.90
18611;DHT22;9435;52.122;5.502;2023-04-19T14:40:01;14.70;99.90
18611;DHT22;9435;52.122;5.502;2023-04-19T14:42:28;14.90;99.90
18611;DHT22;9435;52.122;5.502;2023-04-19T14:44:56;14.90;99.90
18611;DHT22;9435;52.122;5.502;2023-04-19T14:47:23;14.80;99.90
18611;DHT22;9435;52.122;5.502;2023-04-19T14:49:50;14.90;99.90
18611;DHT22;9435;52.122;5.502;2023-04-19T14:52:17;15.10;99.90
18611;DHT22;9435;52.122;5.502;2023-04-19T14:54:46;15.10;99.90
18611;DHT22;9435;52.122;5.502;2023-04-19T14:57:13;15.10;99.90
18611;DHT22;9435;52.122;5.502;2023-04-19T14:59:40;15.00;99.90
18611;DHT22;9435;52.122;5.502;2023-04-19T15:02:07;14.90;99.90
18611;DHT22;9435;52.122;5.502;2023-04-19T15:04:35;14.50;99.90
18611;DHT22;9435;52.122;5.502;2023-04-19T15:07:02;14.50;99.90
18611;DHT22;9435;52.122;5.502;2023-04-19T15:09:29;14.50;99.90
18611;DHT22;9435;52.122;5.502;2023-04-19T15:11:58;14.60;99.90
18611;DHT22;9435;52.122;5.502;2023-04-19T15:14:26;14.60;99.90
18611;DHT22;9435;52.122;5.502;2023-04-19T15:16:53;14.70;99.90
18611;DHT22;9435;52.122;5.502;2023-04-19T15:19:20;14.70;99.90
18611;DHT22;9435;52.122;5.502;2023-04-19T15:21:47;14.50;99.90
18611;DHT22;9435;52.122;5.502;2023-04-19T15:24:14;14.60;99.90
18611;DHT22;9435;52.122;5.502;2023-04-19T15:26:41;14.70;99.90
18611;DHT22;9435;52.122;5.502;2023-04-19T15:29:09;14.70;99.90
18611;DHT22;9435;52.122;5.502;2023-04-19T15:31:36;14.70;99.90
18611;DHT22;9435;52.122;5.502;2023-04-19T15:34:03;14.60;99.90
18611;DHT22;9435;52.122;5.502;2023-04-19T15:36:33;14.70;99.90
18611;DHT22;9435;52.122;5.502;2023-04-19T15:39:00;14.50;99.90
18611;DHT22;9435;52.122;5.502;2023-04-19T15:41:27;14.50;99.90
18611;DHT22;9435;52.122;5.502;2023-04-19T15:43:56;14.60;99.90
18611;DHT22;9435;52.122;5.502;2023-04-19T15:46:24;14.60;99.90
18611;DHT22;9435;52.122;5.502;2023-04-19T15:48:54;14.60;99.90
18611;DHT22;9435;52.122;5.502;2023-04-19T15:51:21;14.60;99.90
18611;DHT22;9435;52.122;5.502;2023-04-19T15:53:48;14.40;99.90
18611;DHT22;9435;52.122;5.502;2023-04-19T15:56:16;14.40;99.90
18611;DHT22;9435;52.122;5.502;2023-04-19T15:58:43;14.40;99.90